Great — TCYV6 — position and weather

sailwx.info

Track history (hours):
 
Tides and Currents Weather Stations Pressure Air Temp Water Temp Dewpoint Dewpoint Depression Visibility Wind Speed Wind Dir Waves Ship Positions

Great

Last reported at 2016-Jul-30 12:32 UTC. Time now 2016-Jul-30 13:02 UTC.
Position N 38°14' E 009°07'.

Length 186 m; draft 10.6 m.

Type: Cargo ship. MMSI: 271042241.

Date/timePositionNaut miles runAvg speedWind from/ knotsBaromVisibWave heightAir tempDewpointWater temp
2016-Jul-30 12:32N 38°14' E 009°07'1110.9
2016-Jul-30 11:33N 38°12' E 009°21'1110.9
2016-Jul-30 10:33N 38°10' E 009°34'1110.7
2016-Jul-30 09:33N 38°09' E 009°48'1310.4
2016-Jul-30 08:19N 38°07' E 010°04'13010.2
2016-Jul-29 19:33N 37°24' E 012°39'1010.4
2016-Jul-29 18:33N 37°19' E 012°51'10 9.9
2016-Jul-29 17:33N 37°15' E 013°02'1010.4
2016-Jul-29 16:33N 37°10' E 013°14'1110.7
2016-Jul-29 15:32N 37°05' E 013°26'1010.6
2016-Jul-29 14:33N 37°01' E 013°38'1010.3
2016-Jul-29 13:33N 36°57' E 013°49'1010.3
2016-Jul-29 12:33N 36°52' E 014°01'1010.4
2016-Jul-29 11:33N 36°48' E 014°13'1110.8
2016-Jul-29 10:33N 36°43' E 014°25'1111.0
2016-Jul-29 09:33N 36°39' E 014°38'1110.9
2016-Jul-29 08:32N 36°37' E 014°51'4410.9
2016-Jul-29 04:31N 36°34' E 015°46'1010.7
2016-Jul-29 03:32N 36°33' E 015°59'  
2016-Jul-22 23:27N 36°33' E 024°00'  
2016-Jul-20 15:33N 43°30' E 014°22'1111.0
2016-Jul-20 14:32N 43°38' E 014°11'1111.2
2016-Jul-20 13:31N 43°47' E 013°60'  
Track history (hours):
 
Tides and Currents Weather Stations Pressure Air Temp Water Temp Dewpoint Dewpoint Depression Visibility Wind Speed Wind Dir Waves Ship Positions

Great

Last reported at 2016-Jul-30 12:32 UTC. Time now 2016-Jul-30 13:02 UTC.
Position N 38°14' E 009°07'.

Length 186 m; draft 10.6 m.

Type: Cargo ship. MMSI: 271042241.

Date/timePositionNaut miles runAvg speedWind from/ knotsBaromVisibWave heightAir tempDewpointWater temp
2016-Jul-30 12:32N 38°14' E 009°07'1110.9
2016-Jul-30 11:33N 38°12' E 009°21'1110.9
2016-Jul-30 10:33N 38°10' E 009°34'1110.7
2016-Jul-30 09:33N 38°09' E 009°48'1310.4
2016-Jul-30 08:19N 38°07' E 010°04'13010.2
2016-Jul-29 19:33N 37°24' E 012°39'1010.4
2016-Jul-29 18:33N 37°19' E 012°51'10 9.9
2016-Jul-29 17:33N 37°15' E 013°02'1010.4
2016-Jul-29 16:33N 37°10' E 013°14'1110.7
2016-Jul-29 15:32N 37°05' E 013°26'1010.6
2016-Jul-29 14:33N 37°01' E 013°38'1010.3
2016-Jul-29 13:33N 36°57' E 013°49'1010.3
2016-Jul-29 12:33N 36°52' E 014°01'1010.4
2016-Jul-29 11:33N 36°48' E 014°13'1110.8
2016-Jul-29 10:33N 36°43' E 014°25'1111.0
2016-Jul-29 09:33N 36°39' E 014°38'1110.9
2016-Jul-29 08:32N 36°37' E 014°51'4410.9
2016-Jul-29 04:31N 36°34' E 015°46'1010.7
2016-Jul-29 03:32N 36°33' E 015°59'  
2016-Jul-22 23:27N 36°33' E 024°00'  
2016-Jul-20 15:33N 43°30' E 014°22'1111.0
2016-Jul-20 14:32N 43°38' E 014°11'1111.2
2016-Jul-20 13:31N 43°47' E 013°60'  

Dump ship's entire track history